createdAt,value
2016-07-03T00:00:20.637Z,1011.16
2016-07-03T00:00:50.645Z,1011.18
2016-07-03T00:01:20.670Z,1011.13
2016-07-03T00:01:50.697Z,1011.16
2016-07-03T00:02:20.694Z,1011.13
2016-07-03T00:02:50.695Z,1011.15
2016-07-03T00:03:20.726Z,1011.13
2016-07-03T00:03:50.745Z,1011.14
2016-07-03T00:04:20.744Z,1011.13
2016-07-03T00:04:50.758Z,1011.08
2016-07-03T00:05:20.788Z,1011.16
2016-07-03T00:05:50.798Z,1011.13
2016-07-03T00:06:20.187Z,1011.14
2016-07-03T00:06:50.824Z,1011.1
2016-07-03T00:07:20.847Z,1011.1
2016-07-03T00:07:50.852Z,1011.1
2016-07-03T00:08:20.849Z,1011.11
2016-07-03T00:08:50.894Z,1011.11
2016-07-03T00:09:20.882Z,1011.13
2016-07-03T00:09:50.291Z,1011.09
2016-07-03T00:10:20.915Z,1011.13
2016-07-03T00:10:50.936Z,1011.09
2016-07-03T00:11:20.340Z,1011.06
2016-07-03T00:11:50.966Z,1011.1
2016-07-03T00:12:20.980Z,1011.09
2016-07-03T00:12:50.989Z,1011.12
2016-07-03T00:13:21.006Z,1011.09
2016-07-03T00:13:51.019Z,1011.12
2016-07-03T00:14:21.037Z,1011.11
2016-07-03T00:14:51.049Z,1011.1
2016-07-03T00:15:21.060Z,1011.14
2016-07-03T00:15:51.079Z,1011.12
2016-07-03T00:16:21.089Z,1011.11
2016-07-03T00:16:51.104Z,1011.13
2016-07-03T00:17:21.113Z,1011.12
2016-07-03T00:17:51.120Z,1011.15
2016-07-03T00:18:20.524Z,1011.12
2016-07-03T00:18:51.166Z,1011.12
2016-07-03T00:19:21.174Z,1011.08
2016-07-03T00:19:51.186Z,1011.07
2016-07-03T00:20:21.199Z,1011.1
2016-07-03T00:20:50.596Z,1011.08
2016-07-03T00:21:21.226Z,1011.09
2016-07-03T00:21:51.251Z,1011.1
2016-07-03T00:22:21.251Z,1011.1
2016-07-03T00:22:51.264Z,1011.09
2016-07-03T00:23:21.272Z,1011.13
2016-07-03T00:23:51.293Z,1011.13
2016-07-03T00:24:21.311Z,1011.1
2016-07-03T00:24:51.310Z,1011.14
2016-07-03T00:25:21.329Z,1011.13
2016-07-03T00:25:51.332Z,1011.17
2016-07-03T00:26:20.724Z,1011.12
2016-07-03T00:26:51.358Z,1011.13
2016-07-03T00:27:20.756Z,1011.13
2016-07-03T00:27:51.391Z,1011.13
2016-07-03T00:28:20.778Z,1011.13
2016-07-03T00:28:51.406Z,1011.12
2016-07-03T00:29:20.814Z,1011.13
2016-07-03T00:29:51.459Z,1011.16
2016-07-03T00:30:21.471Z,1011.17
2016-07-03T00:30:50.878Z,1011.13
2016-07-03T00:31:21.507Z,1011.12
2016-07-03T00:31:51.521Z,1011.12
2016-07-03T00:32:21.523Z,1011.14
2016-07-03T00:32:51.550Z,1011.16
2016-07-03T00:33:21.559Z,1011.17
2016-07-03T00:33:51.575Z,1011.14
2016-07-03T00:34:21.574Z,1011.15
2016-07-03T00:34:51.604Z,1011.14
2016-07-03T00:35:21.609Z,1011.15
2016-07-03T00:35:51.015Z,1011.14
2016-07-03T00:36:21.006Z,1011.17
2016-07-03T00:36:51.029Z,1011.19
2016-07-03T00:37:21.668Z,1011.16
2016-07-03T00:37:51.692Z,1011.19
2016-07-03T00:38:21.694Z,1011.17
2016-07-03T00:38:51.109Z,1011.15
2016-07-03T00:39:21.718Z,1011.14
2016-07-03T00:39:51.751Z,1011.15
2016-07-03T00:40:21.748Z,1011.14
2016-07-03T00:40:51.753Z,1011.18
2016-07-03T00:41:21.791Z,1011.16
2016-07-03T00:41:51.806Z,1011.13
2016-07-03T00:42:21.820Z,1011.14
2016-07-03T00:42:51.814Z,1011.19
2016-07-03T00:43:21.826Z,1011.14
2016-07-03T00:43:51.861Z,1011.14
2016-07-03T00:44:21.249Z,1011.17
2016-07-03T00:44:51.898Z,1011.17
2016-07-03T00:45:21.889Z,1011.15
2016-07-03T00:45:51.904Z,1011.15
2016-07-03T00:46:21.296Z,1011.14
2016-07-03T00:46:51.938Z,1011.18
2016-07-03T00:47:21.966Z,1011.2
2016-07-03T00:47:51.971Z,1011.21
2016-07-03T00:48:21.967Z,1011.17
2016-07-03T00:48:51.993Z,1011.19
2016-07-03T00:49:21.390Z,1011.19
2016-07-03T00:49:52.029Z,1011.21
2016-07-03T00:50:22.036Z,1011.22
2016-07-03T00:50:52.061Z,1011.2
2016-07-03T00:51:22.064Z,1011.21
2016-07-03T00:51:52.089Z,1011.23
2016-07-03T00:52:21.480Z,1011.22
2016-07-03T00:52:52.106Z,1011.23
2016-07-03T00:53:21.495Z,1011.19
2016-07-03T00:53:52.114Z,1011.2
2016-07-03T00:54:22.140Z,1011.2
2016-07-03T00:54:52.157Z,1011.21
2016-07-03T00:55:22.179Z,1011.24
2016-07-03T00:55:52.192Z,1011.24
2016-07-03T00:56:21.586Z,1011.23
2016-07-03T00:56:51.602Z,1011.26
2016-07-03T00:57:22.222Z,1011.21
2016-07-03T00:57:51.005Z,1011.27
2016-07-03T00:58:22.249Z,1011.24
2016-07-03T00:58:52.281Z,1011.24
2016-07-03T00:59:21.688Z,1011.25
2016-07-03T00:59:52.279Z,1011.26
2016-07-03T01:00:22.298Z,1011.23
2016-07-03T01:00:52.321Z,1011.22
2016-07-03T01:01:22.339Z,1011.21
2016-07-03T01:01:52.358Z,1011.22
2016-07-03T01:02:22.356Z,1011.25
2016-07-03T01:02:52.379Z,1011.25
2016-07-03T01:03:21.771Z,1011.25
2016-07-03T01:03:52.395Z,1011.22
2016-07-03T01:04:22.418Z,1011.23
2016-07-03T01:04:51.201Z,1011.22
2016-07-03T01:05:21.833Z,1011.24
2016-07-03T01:05:52.461Z,1011.27
2016-07-03T01:06:22.475Z,1011.26
2016-07-03T01:06:51.892Z,1011.27
2016-07-03T01:07:22.509Z,1011.28
2016-07-03T01:07:52.518Z,1011.26
2016-07-03T01:08:22.536Z,1011.24
2016-07-03T01:08:52.568Z,1011.24
2016-07-03T01:09:22.562Z,1011.28
2016-07-03T01:09:52.560Z,1011.24
2016-07-03T01:10:22.581Z,1011.29
2016-07-03T01:10:52.598Z,1011.26
2016-07-03T01:11:21.379Z,1011.28
2016-07-03T01:11:52.605Z,1011.28
2016-07-03T01:12:22.617Z,1011.27
2016-07-03T01:12:52.644Z,1011.25
2016-07-03T01:13:22.652Z,1011.31
2016-07-03T01:13:52.649Z,1011.25
2016-07-03T01:14:22.677Z,1011.29
2016-07-03T01:14:52.695Z,1011.28
2016-07-03T01:15:22.080Z,1011.31
2016-07-03T01:15:52.720Z,1011.29
2016-07-03T01:16:22.116Z,1011.3
2016-07-03T01:16:52.752Z,1011.29
2016-07-03T01:17:22.779Z,1011.28
2016-07-03T01:17:52.784Z,1011.28
2016-07-03T01:18:22.784Z,1011.29
2016-07-03T01:18:52.209Z,1011.27
2016-07-03T01:19:22.209Z,1011.29
2016-07-03T01:19:52.240Z,1011.31
2016-07-03T01:20:22.240Z,1011.27
2016-07-03T01:20:52.875Z,1011.3
2016-07-03T01:21:22.889Z,1011.34
2016-07-03T01:21:52.289Z,1011.33
2016-07-03T01:22:22.301Z,1011.29
2016-07-03T01:22:52.929Z,1011.33
2016-07-03T01:23:22.334Z,1011.33
2016-07-03T01:23:52.963Z,1011.34
2016-07-03T01:24:22.961Z,1011.36
2016-07-03T01:24:52.973Z,1011.33
2016-07-03T01:25:23.012Z,1011.34
2016-07-03T01:25:53.010Z,1011.36
2016-07-03T01:26:23.008Z,1011.33
2016-07-03T01:26:53.033Z,1011.33
2016-07-03T01:27:23.037Z,1011.34
2016-07-03T01:27:53.063Z,1011.35
2016-07-03T01:28:23.076Z,1011.3
2016-07-03T01:28:53.088Z,1011.31
2016-07-03T01:29:23.095Z,1011.33
2016-07-03T01:29:53.131Z,1011.36
2016-07-03T01:30:23.125Z,1011.32
2016-07-03T01:30:53.127Z,1011.32
2016-07-03T01:31:22.556Z,1011.34
2016-07-03T01:31:53.179Z,1011.35
2016-07-03T01:32:23.190Z,1011.31
2016-07-03T01:32:53.201Z,1011.33
2016-07-03T01:33:23.216Z,1011.31
2016-07-03T01:33:53.216Z,1011.29
2016-07-03T01:34:23.243Z,1011.31
2016-07-03T01:34:53.249Z,1011.31
2016-07-03T01:35:23.266Z,1011.29
2016-07-03T01:35:53.282Z,1011.26
2016-07-03T01:36:23.292Z,1011.31
2016-07-03T01:36:53.300Z,1011.31
2016-07-03T01:37:23.307Z,1011.32
2016-07-03T01:37:52.733Z,1011.33
2016-07-03T01:38:22.728Z,1011.33
2016-07-03T01:38:53.352Z,1011.35
2016-07-03T01:39:23.370Z,1011.32
2016-07-03T01:39:52.779Z,1011.35
2016-07-03T01:40:23.408Z,1011.35
2016-07-03T01:40:52.801Z,1011.35
2016-07-03T01:41:23.431Z,1011.31
2016-07-03T01:41:53.440Z,1011.31
2016-07-03T01:42:23.452Z,1011.31
2016-07-03T01:42:53.483Z,1011.32
2016-07-03T01:43:23.493Z,1011.31
2016-07-03T01:43:53.510Z,1011.31
2016-07-03T01:44:23.520Z,1011.32
2016-07-03T01:44:53.522Z,1011.3
2016-07-03T01:45:23.532Z,1011.3
2016-07-03T01:45:53.562Z,1011.31
2016-07-03T01:46:23.564Z,1011.33
2016-07-03T01:46:52.346Z,1011.32
2016-07-03T01:47:23.602Z,1011.29
2016-07-03T01:47:53.621Z,1011.29
2016-07-03T01:48:23.616Z,1011.26
2016-07-03T01:48:53.631Z,1011.25
2016-07-03T01:49:23.637Z,1011.26
2016-07-03T01:49:53.054Z,1011.22
2016-07-03T01:50:23.677Z,1011.25
2016-07-03T01:50:53.683Z,1011.28
2016-07-03T01:51:23.699Z,1011.23
2016-07-03T01:51:53.714Z,1011.27
2016-07-03T01:52:23.732Z,1011.3
2016-07-03T01:52:53.750Z,1011.23
2016-07-03T01:53:23.142Z,1011.23
2016-07-03T01:53:53.760Z,1011.28
2016-07-03T01:54:23.768Z,1011.29
2016-07-03T01:54:53.798Z,1011.27
2016-07-03T01:55:23.182Z,1011.28
2016-07-03T01:55:53.833Z,1011.27
2016-07-03T01:56:23.827Z,1011.27
2016-07-03T01:56:53.230Z,1011.24
2016-07-03T01:57:23.859Z,1011.2
2016-07-03T01:57:53.256Z,1011.26
2016-07-03T01:58:23.881Z,1011.24
2016-07-03T01:58:53.902Z,1011.23
2016-07-03T01:59:23.909Z,1011.24
2016-07-03T01:59:53.962Z,1011.23
2016-07-03T02:00:22.742Z,1011.23
2016-07-03T02:00:53.964Z,1011.26
2016-07-03T02:01:23.985Z,1011.26
2016-07-03T02:01:54.002Z,1011.24
2016-07-03T02:02:24.021Z,1011.25
2016-07-03T02:02:53.406Z,1011.25
2016-07-03T02:03:24.040Z,1011.24
2016-07-03T02:03:54.058Z,1011.26
2016-07-03T02:04:24.070Z,1011.24
2016-07-03T02:04:54.073Z,1011.23
2016-07-03T02:05:24.086Z,1011.21
2016-07-03T02:05:53.493Z,1011.25
2016-07-03T02:06:22.889Z,1011.17
2016-07-03T02:06:53.514Z,1011.19
2016-07-03T02:07:24.152Z,1011.22
2016-07-03T02:07:53.535Z,1011.2
2016-07-03T02:08:22.943Z,1011.2
2016-07-03T02:08:54.190Z,1011.23
2016-07-03T02:09:23.589Z,1011.24
2016-07-03T02:09:54.215Z,1011.24
2016-07-03T02:10:24.221Z,1011.22
2016-07-03T02:10:54.248Z,1011.23
2016-07-03T02:11:24.243Z,1011.25
2016-07-03T02:11:54.268Z,1011.21
2016-07-03T02:12:24.286Z,1011.25
2016-07-03T02:12:54.312Z,1011.25
2016-07-03T02:13:24.301Z,1011.23
2016-07-03T02:13:53.735Z,1011.23
2016-07-03T02:14:23.734Z,1011.18
2016-07-03T02:14:54.345Z,1011.19
2016-07-03T02:15:24.362Z,1011.21
2016-07-03T02:15:54.380Z,1011.16
2016-07-03T02:16:24.394Z,1011.2
2016-07-03T02:16:54.408Z,1011.21
2016-07-03T02:17:23.800Z,1011.21
2016-07-03T02:17:54.427Z,1011.21
2016-07-03T02:18:24.430Z,1011.18
2016-07-03T02:18:54.462Z,1011.21
2016-07-03T02:19:24.464Z,1011.2
2016-07-03T02:19:53.855Z,1011.17
2016-07-03T02:20:24.499Z,1011.18
2016-07-03T02:20:54.511Z,1011.21
2016-07-03T02:21:24.521Z,1011.18
2016-07-03T02:21:54.534Z,1011.22
2016-07-03T02:22:24.563Z,1011.2
2016-07-03T02:22:54.565Z,1011.21
2016-07-03T02:23:24.582Z,1011.19
2016-07-03T02:23:54.597Z,1011.18
2016-07-03T02:24:24.605Z,1011.17
2016-07-03T02:24:54.619Z,1011.16
2016-07-03T02:25:24.019Z,1011.21
2016-07-03T02:25:54.654Z,1011.17
2016-07-03T02:26:24.662Z,1011.21
2016-07-03T02:26:54.060Z,1011.21
2016-07-03T02:27:24.687Z,1011.24
2016-07-03T02:27:54.706Z,1011.25
2016-07-03T02:28:24.711Z,1011.23
2016-07-03T02:28:54.726Z,1011.22
2016-07-03T02:29:24.740Z,1011.22
2016-07-03T02:29:54.761Z,1011.24
2016-07-03T02:30:24.779Z,1011.22
2016-07-03T02:30:54.788Z,1011.24
2016-07-03T02:31:24.797Z,1011.23
2016-07-03T02:31:54.824Z,1011.23
2016-07-03T02:32:24.835Z,1011.26
2016-07-03T02:32:54.839Z,1011.23
2016-07-03T02:33:24.855Z,1011.24
2016-07-03T02:33:54.866Z,1011.24
2016-07-03T02:34:24.878Z,1011.25
2016-07-03T02:34:54.883Z,1011.24
2016-07-03T02:35:24.901Z,1011.25
2016-07-03T02:35:54.307Z,1011.29
2016-07-03T02:36:24.303Z,1011.27
2016-07-03T02:36:54.956Z,1011.24
2016-07-03T02:37:24.943Z,1011.24
2016-07-03T02:37:54.368Z,1011.21
2016-07-03T02:38:24.984Z,1011.29
2016-07-03T02:38:55.002Z,1011.26
2016-07-03T02:39:24.996Z,1011.26
2016-07-03T02:39:55.030Z,1011.26
2016-07-03T02:40:24.415Z,1011.26
2016-07-03T02:40:55.057Z,1011.24
2016-07-03T02:41:25.076Z,1011.27
2016-07-03T02:41:55.069Z,1011.29
2016-07-03T02:42:25.118Z,1011.26
2016-07-03T02:42:55.105Z,1011.26
2016-07-03T02:43:25.119Z,1011.28
2016-07-03T02:43:55.138Z,1011.29
2016-07-03T02:44:24.547Z,1011.28
2016-07-03T02:44:55.170Z,1011.26
2016-07-03T02:45:25.187Z,1011.27
2016-07-03T02:45:55.197Z,1011.29
2016-07-03T02:46:25.208Z,1011.29
2016-07-03T02:46:55.223Z,1011.28
2016-07-03T02:47:25.239Z,1011.25
2016-07-03T02:47:55.260Z,1011.26
2016-07-03T02:48:24.656Z,1011.29
2016-07-03T02:48:55.294Z,1011.26
2016-07-03T02:49:24.063Z,1011.27
2016-07-03T02:49:55.317Z,1011.27
2016-07-03T02:50:24.712Z,1011.24
2016-07-03T02:50:55.347Z,1011.28
2016-07-03T02:51:25.348Z,1011.28
2016-07-03T02:51:54.746Z,1011.27
2016-07-03T02:52:25.381Z,1011.3
2016-07-03T02:52:54.780Z,1011.26
2016-07-03T02:53:25.403Z,1011.26
2016-07-03T02:53:55.428Z,1011.26
2016-07-03T02:54:25.427Z,1011.25
2016-07-03T02:54:55.455Z,1011.26
2016-07-03T02:55:25.453Z,1011.26
2016-07-03T02:55:54.863Z,1011.23
2016-07-03T02:56:25.487Z,1011.28
2016-07-03T02:56:55.486Z,1011.25
2016-07-03T02:57:25.510Z,1011.26
2016-07-03T02:57:55.514Z,1011.24
2016-07-03T02:58:24.911Z,1011.24
2016-07-03T02:58:55.559Z,1011.26
2016-07-03T02:59:25.566Z,1011.25
2016-07-03T02:59:55.577Z,1011.26
2016-07-03T03:00:25.598Z,1011.25
2016-07-03T03:00:55.625Z,1011.28
2016-07-03T03:01:25.630Z,1011.25
2016-07-03T03:01:55.631Z,1011.26
2016-07-03T03:02:25.027Z,1011.32
2016-07-03T03:02:55.664Z,1011.27
2016-07-03T03:03:25.051Z,1011.3
2016-07-03T03:03:55.679Z,1011.3
2016-07-03T03:04:25.697Z,1011.32
2016-07-03T03:04:55.088Z,1011.26
2016-07-03T03:05:25.104Z,1011.27
2016-07-03T03:05:55.728Z,1011.29
2016-07-03T03:06:25.743Z,1011.29
2016-07-03T03:06:55.768Z,1011.3
2016-07-03T03:07:25.160Z,1011.3
2016-07-03T03:07:55.782Z,1011.26
2016-07-03T03:08:25.804Z,1011.29
2016-07-03T03:08:55.820Z,1011.31
2016-07-03T03:09:25.829Z,1011.26
2016-07-03T03:09:55.836Z,1011.34
2016-07-03T03:10:25.869Z,1011.29
2016-07-03T03:10:55.892Z,1011.29
2016-07-03T03:11:25.889Z,1011.31
2016-07-03T03:11:55.902Z,1011.31
2016-07-03T03:12:25.908Z,1011.3
2016-07-03T03:12:55.919Z,1011.32
2016-07-03T03:13:25.935Z,1011.28
2016-07-03T03:13:55.958Z,1011.34
2016-07-03T03:14:25.965Z,1011.34
2016-07-03T03:14:55.991Z,1011.29
2016-07-03T03:15:25.382Z,1011.26
2016-07-03T03:15:56.002Z,1011.27
2016-07-03T03:16:26.028Z,1011.27
2016-07-03T03:16:56.041Z,1011.3
2016-07-03T03:17:26.050Z,1011.28
2016-07-03T03:17:55.441Z,1011.28
2016-07-03T03:18:25.461Z,1011.26
2016-07-03T03:18:56.085Z,1011.3
2016-07-03T03:19:26.103Z,1011.29
2016-07-03T03:19:54.903Z,1011.28
2016-07-03T03:20:26.116Z,1011.3
2016-07-03T03:20:55.537Z,1011.31
2016-07-03T03:21:26.156Z,1011.33
2016-07-03T03:21:56.188Z,1011.28
2016-07-03T03:22:26.198Z,1011.33
2016-07-03T03:22:56.202Z,1011.3
2016-07-03T03:23:25.601Z,1011.29
2016-07-03T03:23:55.620Z,1011.31
2016-07-03T03:24:26.242Z,1011.32
2016-07-03T03:24:56.266Z,1011.32
2016-07-03T03:25:25.650Z,1011.32
2016-07-03T03:25:55.664Z,1011.34
2016-07-03T03:26:26.294Z,1011.3
2016-07-03T03:26:56.306Z,1011.3
2016-07-03T03:27:26.316Z,1011.32
2016-07-03T03:27:55.729Z,1011.28
2016-07-03T03:28:26.369Z,1011.31
2016-07-03T03:28:56.374Z,1011.32
2016-07-03T03:29:26.374Z,1011.34
2016-07-03T03:29:55.787Z,1011.31
2016-07-03T03:30:25.799Z,1011.32
2016-07-03T03:30:55.808Z,1011.35
2016-07-03T03:31:26.418Z,1011.38
2016-07-03T03:31:56.462Z,1011.37
2016-07-03T03:32:26.459Z,1011.37
2016-07-03T03:32:56.483Z,1011.42
2016-07-03T03:33:26.489Z,1011.37
2016-07-03T03:33:56.508Z,1011.39
2016-07-03T03:34:26.520Z,1011.36
2016-07-03T03:34:56.545Z,1011.38
2016-07-03T03:35:26.545Z,1011.38
2016-07-03T03:35:56.558Z,1011.39
2016-07-03T03:36:25.951Z,1011.39
2016-07-03T03:36:55.964Z,1011.41
2016-07-03T03:37:26.597Z,1011.4
2016-07-03T03:37:56.611Z,1011.42
2016-07-03T03:38:26.620Z,1011.4
2016-07-03T03:38:56.622Z,1011.44
2016-07-03T03:39:26.648Z,1011.39
2016-07-03T03:39:56.039Z,1011.4
2016-07-03T03:40:26.666Z,1011.41
2016-07-03T03:40:56.686Z,1011.43
2016-07-03T03:41:26.064Z,1011.4
2016-07-03T03:41:56.084Z,1011.39
2016-07-03T03:42:26.713Z,1011.43
2016-07-03T03:42:55.500Z,1011.43
2016-07-03T03:43:26.748Z,1011.45
2016-07-03T03:43:56.753Z,1011.44
2016-07-03T03:44:26.766Z,1011.46
2016-07-03T03:44:56.195Z,1011.46
2016-07-03T03:45:26.818Z,1011.49
2016-07-03T03:45:56.207Z,1011.43
2016-07-03T03:46:26.838Z,1011.47
2016-07-03T03:46:56.867Z,1011.45
2016-07-03T03:47:26.876Z,1011.49
2016-07-03T03:47:56.267Z,1011.45
2016-07-03T03:48:26.909Z,1011.49
2016-07-03T03:48:56.914Z,1011.48
2016-07-03T03:49:26.317Z,1011.47
2016-07-03T03:49:56.920Z,1011.47
2016-07-03T03:50:26.942Z,1011.46
2016-07-03T03:50:56.970Z,1011.47
2016-07-03T03:51:26.978Z,1011.45
2016-07-03T03:51:56.383Z,1011.48
2016-07-03T03:52:27.015Z,1011.47
2016-07-03T03:52:57.024Z,1011.44
2016-07-03T03:53:27.031Z,1011.43
2016-07-03T03:53:57.027Z,1011.47
2016-07-03T03:54:26.435Z,1011.48
2016-07-03T03:54:57.074Z,1011.47
2016-07-03T03:55:26.470Z,1011.5
2016-07-03T03:55:57.099Z,1011.43
2016-07-03T03:56:27.117Z,1011.47
2016-07-03T03:56:57.138Z,1011.45
2016-07-03T03:57:27.145Z,1011.44
2016-07-03T03:57:56.544Z,1011.44
2016-07-03T03:58:27.175Z,1011.45
2016-07-03T03:58:57.184Z,1011.47
2016-07-03T03:59:27.200Z,1011.46
2016-07-03T03:59:57.224Z,1011.47
2016-07-03T04:00:27.228Z,1011.46
2016-07-03T04:00:57.244Z,1011.48
2016-07-03T04:01:27.258Z,1011.52
2016-07-03T04:01:57.273Z,1011.54
2016-07-03T04:02:27.283Z,1011.53
2016-07-03T04:02:57.292Z,1011.55
2016-07-03T04:03:27.309Z,1011.57
2016-07-03T04:03:57.324Z,1011.54
2016-07-03T04:04:27.332Z,1011.51
2016-07-03T04:04:57.343Z,1011.54
2016-07-03T04:05:27.372Z,1011.57
2016-07-03T04:05:56.778Z,1011.62
2016-07-03T04:06:27.380Z,1011.63
2016-07-03T04:06:57.409Z,1011.63
2016-07-03T04:07:27.422Z,1011.65
2016-07-03T04:07:57.428Z,1011.63
2016-07-03T04:08:27.432Z,1011.67
2016-07-03T04:08:56.841Z,1011.69
2016-07-03T04:09:27.459Z,1011.73
2016-07-03T04:09:57.484Z,1011.7
2016-07-03T04:10:27.487Z,1011.72
2016-07-03T04:10:57.500Z,1011.73
2016-07-03T04:11:26.928Z,1011.69
2016-07-03T04:11:57.539Z,1011.73
2016-07-03T04:12:26.936Z,1011.7
2016-07-03T04:12:57.571Z,1011.69
2016-07-03T04:13:26.962Z,1011.71
2016-07-03T04:13:56.987Z,1011.73
2016-07-03T04:14:27.606Z,1011.72
2016-07-03T04:14:57.635Z,1011.71
2016-07-03T04:15:27.635Z,1011.66
2016-07-03T04:15:57.632Z,1011.68
2016-07-03T04:16:27.660Z,1011.68
2016-07-03T04:16:57.066Z,1011.67
2016-07-03T04:17:27.072Z,1011.64
2016-07-03T04:17:57.702Z,1011.67
2016-07-03T04:18:27.709Z,1011.66
2016-07-03T04:18:57.113Z,1011.66
2016-07-03T04:19:27.751Z,1011.67
2016-07-03T04:19:57.148Z,1011.65
2016-07-03T04:20:27.769Z,1011.64
2016-07-03T04:20:57.799Z,1011.65
2016-07-03T04:21:27.190Z,1011.62
2016-07-03T04:21:57.817Z,1011.64
2016-07-03T04:22:27.220Z,1011.64
2016-07-03T04:22:57.229Z,1011.63
2016-07-03T04:23:27.845Z,1011.61
2016-07-03T04:23:57.890Z,1011.64
2016-07-03T04:24:27.892Z,1011.61
2016-07-03T04:24:56.667Z,1011.59
2016-07-03T04:25:27.928Z,1011.62
2016-07-03T04:25:57.297Z,1011.57
2016-07-03T04:26:26.709Z,1011.6
2016-07-03T04:26:57.363Z,1011.58
2016-07-03T04:27:27.977Z,1011.51
2016-07-03T04:27:57.994Z,1011.5
2016-07-03T04:28:28.000Z,1011.52
2016-07-03T04:28:58.023Z,1011.54
2016-07-03T04:29:28.033Z,1011.56
2016-07-03T04:29:58.044Z,1011.56
2016-07-03T04:30:28.053Z,1011.58
2016-07-03T04:30:58.074Z,1011.56
2016-07-03T04:31:28.093Z,1011.57
2016-07-03T04:31:58.115Z,1011.59
2016-07-03T04:32:27.501Z,1011.55
2016-07-03T04:32:58.138Z,1011.57
2016-07-03T04:33:28.145Z,1011.56
2016-07-03T04:33:58.165Z,1011.57
2016-07-03T04:34:27.555Z,1011.52
2016-07-03T04:34:58.184Z,1011.53
2016-07-03T04:35:28.197Z,1011.55
2016-07-03T04:35:57.610Z,1011.56
2016-07-03T04:36:28.225Z,1011.51
2016-07-03T04:36:58.244Z,1011.54
2016-07-03T04:37:28.274Z,1011.58
2016-07-03T04:37:58.278Z,1011.57
2016-07-03T04:38:27.672Z,1011.57
2016-07-03T04:38:58.305Z,1011.56
2016-07-03T04:39:27.703Z,1011.56
2016-07-03T04:39:58.336Z,1011.58
2016-07-03T04:40:28.342Z,1011.6
2016-07-03T04:40:58.361Z,1011.58
2016-07-03T04:41:28.381Z,1011.59
2016-07-03T04:41:58.394Z,1011.57
2016-07-03T04:42:28.397Z,1011.58
2016-07-03T04:42:58.415Z,1011.6
2016-07-03T04:43:28.431Z,1011.59
2016-07-03T04:43:58.446Z,1011.6
2016-07-03T04:44:27.834Z,1011.58
2016-07-03T04:44:57.862Z,1011.58
2016-07-03T04:45:28.481Z,1011.56
2016-07-03T04:45:58.493Z,1011.59
2016-07-03T04:46:27.895Z,1011.59
2016-07-03T04:46:57.911Z,1011.57
2016-07-03T04:47:27.925Z,1011.58
2016-07-03T04:47:58.553Z,1011.58
2016-07-03T04:48:27.942Z,1011.59
2016-07-03T04:48:57.957Z,1011.57
2016-07-03T04:49:28.607Z,1011.58
2016-07-03T04:49:57.999Z,1011.56
2016-07-03T04:50:28.626Z,1011.53
2016-07-03T04:50:58.022Z,1011.52
2016-07-03T04:51:28.647Z,1011.52
2016-07-03T04:51:58.058Z,1011.52
2016-07-03T04:52:28.682Z,1011.55
2016-07-03T04:52:58.697Z,1011.55
2016-07-03T04:53:28.718Z,1011.58
2016-07-03T04:53:58.736Z,1011.58
2016-07-03T04:54:28.735Z,1011.62
2016-07-03T04:54:58.753Z,1011.61
2016-07-03T04:55:28.156Z,1011.59
2016-07-03T04:55:58.813Z,1011.64
2016-07-03T04:56:28.789Z,1011.58
2016-07-03T04:56:58.182Z,1011.63
2016-07-03T04:57:28.823Z,1011.61
2016-07-03T04:57:58.825Z,1011.64
2016-07-03T04:58:28.847Z,1011.63
2016-07-03T04:58:58.857Z,1011.6
2016-07-03T04:59:28.882Z,1011.69
2016-07-03T04:59:58.895Z,1011.66
2016-07-03T05:00:28.906Z,1011.67
2016-07-03T05:00:58.324Z,1011.68
2016-07-03T05:01:28.931Z,1011.69
2016-07-03T05:01:58.950Z,1011.65
2016-07-03T05:02:28.957Z,1011.65
2016-07-03T05:02:58.982Z,1011.65
2016-07-03T05:03:27.782Z,1011.62
2016-07-03T05:03:59.014Z,1011.61
2016-07-03T05:04:29.015Z,1011.6
2016-07-03T05:04:58.433Z,1011.63
2016-07-03T05:05:29.051Z,1011.63
2016-07-03T05:05:59.058Z,1011.64
2016-07-03T05:06:28.464Z,1011.62
2016-07-03T05:06:58.480Z,1011.62
2016-07-03T05:07:29.088Z,1011.65
2016-07-03T05:07:59.123Z,1011.63
2016-07-03T05:08:29.124Z,1011.66
2016-07-03T05:08:58.533Z,1011.64
2016-07-03T05:09:29.178Z,1011.63
2016-07-03T05:09:59.159Z,1011.64
2016-07-03T05:10:29.179Z,1011.65
2016-07-03T05:10:59.196Z,1011.67
2016-07-03T05:11:29.207Z,1011.63
2016-07-03T05:11:59.230Z,1011.69
2016-07-03T05:12:29.239Z,1011.67
2016-07-03T05:12:59.260Z,1011.68
2016-07-03T05:13:29.268Z,1011.71
2016-07-03T05:13:59.289Z,1011.67
2016-07-03T05:14:28.681Z,1011.7
2016-07-03T05:14:59.316Z,1011.73
2016-07-03T05:15:29.328Z,1011.67
2016-07-03T05:15:59.328Z,1011.69
2016-07-03T05:16:28.748Z,1011.69
2016-07-03T05:16:59.381Z,1011.7
2016-07-03T05:17:29.375Z,1011.69
2016-07-03T05:17:59.404Z,1011.67
2016-07-03T05:18:28.809Z,1011.7
2016-07-03T05:18:58.815Z,1011.7
2016-07-03T05:19:29.450Z,1011.72
2016-07-03T05:19:59.453Z,1011.73
2016-07-03T05:20:28.861Z,1011.74
2016-07-03T05:20:58.874Z,1011.77
2016-07-03T05:21:28.874Z,1011.71
2016-07-03T05:21:59.508Z,1011.74
2016-07-03T05:22:28.911Z,1011.7
2016-07-03T05:22:58.942Z,1011.7
2016-07-03T05:23:29.579Z,1011.73
2016-07-03T05:23:59.583Z,1011.74
2016-07-03T05:24:29.593Z,1011.72
2016-07-03T05:24:59.612Z,1011.74
2016-07-03T05:25:29.629Z,1011.75
2016-07-03T05:25:59.018Z,1011.69
2016-07-03T05:26:29.034Z,1011.75
2016-07-03T05:26:59.673Z,1011.75
2016-07-03T05:27:29.686Z,1011.77
2016-07-03T05:27:59.708Z,1011.76
2016-07-03T05:28:29.694Z,1011.72
2016-07-03T05:28:59.732Z,1011.77
2016-07-03T05:29:29.120Z,1011.8
2016-07-03T05:29:59.753Z,1011.79
2016-07-03T05:30:29.149Z,1011.76
2016-07-03T05:30:59.789Z,1011.75
2016-07-03T05:31:29.800Z,1011.77
2016-07-03T05:31:58.586Z,1011.8
2016-07-03T05:32:29.826Z,1011.81
2016-07-03T05:32:59.843Z,1011.86
2016-07-03T05:33:29.238Z,1011.79
2016-07-03T05:33:59.880Z,1011.82
2016-07-03T05:34:29.879Z,1011.8
2016-07-03T05:34:59.905Z,1011.81
2016-07-03T05:35:29.913Z,1011.86
2016-07-03T05:35:58.703Z,1011.85
2016-07-03T05:36:29.344Z,1011.8
2016-07-03T05:36:59.959Z,1011.8
2016-07-03T05:37:29.961Z,1011.78
2016-07-03T05:37:59.990Z,1011.83
2016-07-03T05:38:29.999Z,1011.84
2016-07-03T05:38:59.399Z,1011.84
2016-07-03T05:39:30.024Z,1011.82
2016-07-03T05:40:00.041Z,1011.8
2016-07-03T05:40:30.063Z,1011.8
2016-07-03T05:40:59.457Z,1011.81
2016-07-03T05:41:30.094Z,1011.83
2016-07-03T05:42:00.107Z,1011.76
2016-07-03T05:42:30.117Z,1011.8
2016-07-03T05:43:00.129Z,1011.82
2016-07-03T05:43:30.158Z,1011.88
2016-07-03T05:44:00.172Z,1011.89
2016-07-03T05:44:30.176Z,1011.9
2016-07-03T05:44:59.578Z,1011.85
2016-07-03T05:45:30.209Z,1011.86
2016-07-03T05:45:59.614Z,1011.95
2016-07-03T05:46:30.252Z,1011.93
2016-07-03T05:47:00.248Z,1011.93
2016-07-03T05:47:30.266Z,1011.94
2016-07-03T05:48:00.306Z,1011.94
2016-07-03T05:48:29.683Z,1011.92
2016-07-03T05:49:00.314Z,1011.93
2016-07-03T05:49:30.334Z,1011.97
2016-07-03T05:49:59.727Z,1011.97
2016-07-03T05:50:29.738Z,1011.95
2016-07-03T05:50:59.751Z,1011.94
2016-07-03T05:51:29.160Z,1011.96
2016-07-03T05:51:59.174Z,1011.93
2016-07-03T05:52:30.432Z,1011.95
2016-07-03T05:52:59.194Z,1011.96
2016-07-03T05:53:30.447Z,1011.98
2016-07-03T05:54:00.486Z,1011.99
2016-07-03T05:54:30.468Z,1011.99
2016-07-03T05:54:59.884Z,1012
2016-07-03T05:55:29.889Z,1012.06
2016-07-03T05:55:59.906Z,1012.04
2016-07-03T05:56:29.913Z,1012.01
2016-07-03T05:57:00.544Z,1012.08
2016-07-03T05:57:30.566Z,1012.05
2016-07-03T05:58:00.583Z,1012.05
2016-07-03T05:58:30.600Z,1012.05
2016-07-03T05:59:00.611Z,1012.07
2016-07-03T05:59:30.012Z,1012.03
2016-07-03T06:00:00.644Z,1012.11
2016-07-03T06:00:30.651Z,1012.07
2016-07-03T06:01:00.660Z,1012.1
2016-07-03T06:01:30.682Z,1012.1
2016-07-03T06:02:00.109Z,1012.1
2016-07-03T06:02:30.713Z,1012.11
2016-07-03T06:03:00.721Z,1012.11
2016-07-03T06:03:30.738Z,1012.06
2016-07-03T06:04:00.757Z,1012.08